Time;durP1;ratioP1;P1;durP2;ratioP2;P2;SDS_P1;SDS_P2;PMS_P1;PMS_P2;Temp;Humidity;BMP_temperature;BMP_pressure;BME280_temperature;BME280_humidity;BME280_pressure;Samples;Min_cycle;Max_cycle;Signal;HPM_P1;HPM_P2
2022/06/27 00:02:53;;;;;;;5.47;3.10;;;19.00;99.90;;;;;;10206202;28;20134;-89
2022/06/27 00:07:55;;;;;;;5.97;3.55;;;18.90;99.90;;;;;;10182904;28;20126;-89
2022/06/27 00:12:57;;;;;;;3.67;2.75;;;18.90;99.90;;;;;;10204929;28;20513;-89
2022/06/27 00:17:59;;;;;;;3.40;2.78;;;18.80;99.90;;;;;;10115757;29;20463;-89
2022/06/27 00:23:03;;;;;;;2.40;2.20;;;18.70;99.90;;;;;;9919884;29;20460;-91
2022/06/27 00:28:22;;;;;;;3.15;1.65;;;18.70;99.90;;;;;;9844829;29;20056;-90
2022/06/27 00:33:55;;;;;;;2.85;1.58;;;18.60;99.90;;;;;;9712702;29;20119;-90
2022/06/27 00:39:51;;;;;;;2.72;1.88;;;18.50;99.90;;;;;;9822699;29;20139;-92
2022/06/27 00:45:42;;;;;;;5.53;2.05;;;18.60;99.90;;;;;;9900102;29;20120;-91
2022/06/27 00:52:06;;;;;;;2.50;1.50;;;18.50;99.90;;;;;;9783446;29;20084;-90
2022/06/27 00:57:42;;;;;;;1.77;0.88;;;18.50;99.90;;;;;;9788243;29;20060;-90
2022/06/27 01:03:20;;;;;;;1.88;0.82;;;18.50;99.90;;;;;;9777356;29;20062;-89
2022/06/27 01:08:42;;;;;;;3.70;0.88;;;18.50;99.90;;;;;;9835137;29;20084;-90
2022/06/27 01:14:11;;;;;;;2.13;1.23;;;18.40;99.90;;;;;;9777954;29;20053;-90
2022/06/27 01:19:24;;;;;;;3.17;1.58;;;18.30;99.90;;;;;;9820938;29;20064;-91
2022/06/27 01:25:08;;;;;;;3.67;1.40;;;18.20;99.90;;;;;;9769092;29;20355;-91
2022/06/27 01:30:51;;;;;;;5.18;1.70;;;18.20;99.90;;;;;;9864820;29;20139;-91
2022/06/27 01:37:03;;;;;;;5.82;1.90;;;18.40;99.90;;;;;;9763506;28;20082;-91
2022/06/27 01:42:40;;;;;;;4.53;1.98;;;18.30;99.90;;;;;;9797067;28;20056;-91
2022/06/27 01:48:23;;;;;;;5.37;2.20;;;18.40;99.90;;;;;;9785359;29;20048;-91
2022/06/27 01:54:07;;;;;;;11.25;2.70;;;18.30;99.90;;;;;;9849936;29;20294;-91
2022/06/27 02:00:19;;;;;;;3.90;2.38;;;18.40;99.90;;;;;;9861159;29;20124;-91
2022/06/27 02:05:47;;;;;;;4.97;2.33;;;18.30;99.90;;;;;;9874128;29;20286;-91
2022/06/27 02:11:31;;;;;;;6.00;2.25;;;18.20;99.90;;;;;;9868343;29;20096;-91
2022/06/27 02:17:23;;;;;;;3.15;2.05;;;18.20;99.90;;;;;;9922133;28;21046;-90
2022/06/27 02:23:13;;;;;;;3.33;1.00;;;18.10;99.90;;;;;;9918364;29;20143;-90
2022/06/27 02:28:53;;;;;;;1.50;0.80;;;18.20;99.90;;;;;;9848643;29;20233;-90
2022/06/27 02:34:05;;;;;;;1.40;1.23;;;18.20;99.90;;;;;;9861021;29;20696;-90
2022/06/27 02:39:20;;;;;;;1.65;1.00;;;18.20;99.90;;;;;;9881792;29;20097;-90
2022/06/27 02:44:26;;;;;;;1.50;0.85;;;18.10;99.90;;;;;;9825288;29;20061;-90
2022/06/27 02:49:37;;;;;;;2.60;1.23;;;18.10;99.90;;;;;;9848354;29;20143;-90
2022/06/27 02:55:29;;;;;;;1.27;0.73;;;18.10;99.90;;;;;;9902678;29;20135;-90
2022/06/27 03:00:33;;;;;;;0.85;0.57;;;18.00;99.90;;;;;;10016721;28;20062;-90
2022/06/27 03:06:08;;;;;;;2.10;0.40;;;18.00;99.90;;;;;;9906300;29;20136;-90
2022/06/27 03:11:48;;;;;;;3.75;0.80;;;17.90;99.90;;;;;;9849931;29;20174;-90
2022/06/27 03:16:58;;;;;;;3.00;0.70;;;17.80;99.90;;;;;;10015114;28;20059;-88
2022/06/27 03:22:00;;;;;;;4.15;0.63;;;17.80;99.90;;;;;;10181366;28;20055;-88
2022/06/27 03:27:02;;;;;;;1.98;0.55;;;17.80;99.90;;;;;;10167212;28;20059;-88
2022/06/27 03:32:04;;;;;;;1.80;0.63;;;17.80;99.90;;;;;;10183647;29;20104;-88
2022/06/27 03:37:07;;;;;;;2.88;0.90;;;17.70;99.90;;;;;;10170834;29;20056;-88
2022/06/27 03:42:09;;;;;;;2.65;0.93;;;17.70;99.90;;;;;;10168097;29;20135;-89
2022/06/27 03:47:11;;;;;;;4.45;0.85;;;17.70;99.90;;;;;;10180197;28;20048;-88
2022/06/27 03:52:13;;;;;;;1.05;0.70;;;17.70;99.90;;;;;;10181999;28;20064;-88
2022/06/27 03:57:15;;;;;;;2.25;0.90;;;17.60;99.90;;;;;;10185773;28;20063;-89
2022/06/27 04:02:16;;;;;;;3.70;0.80;;;17.70;99.90;;;;;;10166240;28;20051;-89
2022/06/27 04:07:18;;;;;;;4.40;1.00;;;17.70;99.90;;;;;;10167049;28;20059;-89
2022/06/27 04:12:20;;;;;;;1.98;0.85;;;17.70;99.90;;;;;;10146458;28;20056;-89
2022/06/27 04:17:23;;;;;;;5.00;1.33;;;17.70;99.90;;;;;;10171122;29;20522;-90
2022/06/27 04:22:25;;;;;;;4.38;1.73;;;17.70;99.90;;;;;;10183149;29;20055;-91
2022/06/27 04:27:27;;;;;;;2.08;1.00;;;17.90;99.90;;;;;;10176272;29;20056;-91
2022/06/27 04:32:29;;;;;;;3.97;1.40;;;17.90;99.90;;;;;;10180138;29;20079;-90
2022/06/27 04:37:31;;;;;;;5.55;1.38;;;17.90;99.90;;;;;;10181849;28;20059;-89
2022/06/27 04:42:33;;;;;;;3.90;1.27;;;18.00;99.90;;;;;;10163112;28;20155;-90
2022/06/27 04:47:38;;;;;;;1.73;1.30;;;17.90;99.90;;;;;;10197162;29;20062;-90
2022/06/27 04:52:41;;;;;;;3.53;1.97;;;18.00;99.90;;;;;;10167938;28;20103;-90
2022/06/27 04:57:48;;;;;;;3.90;2.33;;;18.00;99.90;;;;;;10165102;29;20099;-91
2022/06/27 05:02:50;;;;;;;4.75;2.60;;;18.00;99.90;;;;;;10176807;28;20052;-91
2022/06/27 05:07:52;;;;;;;3.97;2.47;;;18.00;99.90;;;;;;10164468;28;20062;-91
2022/06/27 05:12:54;;;;;;;5.07;2.08;;;18.10;99.90;;;;;;10187895;28;20088;-91
2022/06/27 05:17:58;;;;;;;4.55;2.53;;;18.10;99.90;;;;;;10203700;28;20156;-91
2022/06/27 05:23:01;;;;;;;4.95;2.30;;;18.10;99.90;;;;;;10169801;29;20508;-91
2022/06/27 05:28:03;;;;;;;5.13;2.35;;;18.20;99.90;;;;;;10180851;28;20059;-91
2022/06/27 05:33:05;;;;;;;10.48;3.20;;;18.30;99.90;;;;;;10179959;29;20052;-89
2022/06/27 05:38:07;;;;;;;6.72;2.05;;;18.40;99.90;;;;;;10194502;28;20052;-90
2022/06/27 05:43:09;;;;;;;3.55;2.03;;;18.60;99.90;;;;;;10176388;28;20063;-89
2022/06/27 05:48:11;;;;;;;3.80;2.20;;;18.80;99.90;;;;;;10186738;29;20074;-88
2022/06/27 05:53:13;;;;;;;3.10;1.35;;;18.90;99.90;;;;;;10183354;28;20510;-88
2022/06/27 05:58:18;;;;;;;5.03;1.88;;;19.00;99.90;;;;;;10169834;28;20063;-88
2022/06/27 06:03:20;;;;;;;4.03;1.67;;;19.10;99.90;;;;;;10183422;29;20059;-89
2022/06/27 06:08:23;;;;;;;2.78;1.25;;;19.10;99.90;;;;;;10129181;28;20060;-88
2022/06/27 06:13:25;;;;;;;4.78;1.50;;;19.30;99.90;;;;;;10183353;28;20059;-90
2022/06/27 06:18:29;;;;;;;3.05;0.90;;;19.40;99.90;;;;;;10166230;28;20099;-89
2022/06/27 06:23:36;;;;;;;3.17;1.20;;;19.50;99.90;;;;;;10162289;29;20055;-90
2022/06/27 06:28:38;;;;;;;1.45;0.90;;;19.70;99.90;;;;;;10177645;29;20056;-90
2022/06/27 06:33:40;;;;;;;2.72;1.58;;;19.70;99.90;;;;;;10166376;29;20100;-89
2022/06/27 06:38:42;;;;;;;5.15;1.40;;;19.70;99.90;;;;;;10204277;28;20470;-89
2022/06/27 06:43:48;;;;;;;4.43;1.52;;;19.70;99.90;;;;;;10219043;28;20138;-89
2022/06/27 06:48:54;;;;;;;2.30;1.63;;;19.70;99.90;;;;;;10210443;28;20126;-89
2022/06/27 06:53:56;;;;;;;3.90;2.22;;;19.60;99.90;;;;;;10181348;28;20138;-89
2022/06/27 06:58:58;;;;;;;4.00;1.90;;;19.70;99.90;;;;;;10207794;28;20052;-89
2022/06/27 07:04:01;;;;;;;3.88;2.10;;;19.70;99.90;;;;;;10209853;28;20509;-89
2022/06/27 07:09:03;;;;;;;5.80;2.55;;;19.80;99.90;;;;;;10205980;28;20056;-89
2022/06/27 07:14:05;;;;;;;3.42;2.33;;;19.90;99.90;;;;;;10216281;28;20066;-89
2022/06/27 07:19:08;;;;;;;4.40;1.65;;;19.90;99.90;;;;;;10216379;28;20043;-89
2022/06/27 07:24:11;;;;;;;2.25;2.00;;;20.00;99.90;;;;;;10210102;28;20138;-89
2022/06/27 07:29:13;;;;;;;4.95;1.73;;;20.00;99.90;;;;;;10199524;28;20663;-89
2022/06/27 07:34:19;;;;;;;2.88;1.60;;;20.20;99.90;;;;;;10204819;28;20150;-90
2022/06/27 07:39:27;;;;;;;2.38;1.55;;;20.50;99.90;;;;;;10216413;28;20813;-89
2022/06/27 07:44:30;;;;;;;2.28;1.70;;;20.80;99.90;;;;;;10187337;28;20055;-89
2022/06/27 07:49:32;;;;;;;3.13;1.40;;;20.80;99.90;;;;;;10232350;28;20070;-90
2022/06/27 07:54:34;;;;;;;1.60;1.50;;;20.90;99.90;;;;;;10222137;28;20063;-89
2022/06/27 07:59:38;;;;;;;4.82;1.50;;;21.00;99.90;;;;;;10203261;28;20061;-90
2022/06/27 08:04:41;;;;;;;1.58;1.17;;;21.30;99.90;;;;;;10217848;28;20059;-90
2022/06/27 08:09:44;;;;;;;2.30;1.15;;;21.40;99.90;;;;;;10216708;28;20071;-90
2022/06/27 08:14:46;;;;;;;1.60;1.20;;;21.40;99.90;;;;;;10210743;28;20063;-90
2022/06/27 08:19:49;;;;;;;1.98;1.10;;;21.30;99.90;;;;;;10202539;28;20067;-90
2022/06/27 08:24:51;;;;;;;2.70;1.58;;;21.50;99.90;;;;;;10187224;28;20090;-89
2022/06/27 08:29:54;;;;;;;4.38;0.88;;;21.70;99.90;;;;;;10202011;28;20051;-90
2022/06/27 08:34:57;;;;;;;1.50;0.90;;;21.70;99.90;;;;;;10203221;29;20079;-89
2022/06/27 08:40:01;;;;;;;1.42;0.60;;;21.80;99.90;;;;;;10211590;29;20051;-90
2022/06/27 08:45:07;;;;;;;1.58;0.90;;;21.80;99.90;;;;;;10210886;28;20092;-90
2022/06/27 08:50:10;;;;;;;0.60;0.50;;;21.60;99.90;;;;;;10197188;28;20059;-90
2022/06/27 08:55:13;;;;;;;2.63;0.85;;;21.80;99.90;;;;;;10214660;28;20051;-90
2022/06/27 09:00:15;;;;;;;1.90;1.00;;;21.90;99.90;;;;;;10222130;28;20122;-90
2022/06/27 09:05:24;;;;;;;2.03;1.00;;;21.90;99.90;;;;;;10214374;28;20059;-90
2022/06/27 09:10:35;;;;;;;2.17;0.93;;;21.90;99.90;;;;;;10202694;28;20079;-90
2022/06/27 09:15:56;;;;;;;2.72;0.60;;;21.90;99.90;;;;;;10201329;28;20052;-90
2022/06/27 09:21:04;;;;;;;6.03;0.73;;;21.70;99.90;;;;;;10213940;28;20111;-90
2022/06/27 09:26:19;;;;;;;5.75;0.75;;;21.80;99.90;;;;;;10218843;28;20082;-90
2022/06/27 09:31:28;;;;;;;2.35;0.63;;;21.90;99.90;;;;;;10198664;28;20070;-90
2022/06/27 09:36:32;;;;;;;0.93;0.73;;;22.10;99.90;;;;;;10222534;28;20126;-90
2022/06/27 09:41:35;;;;;;;6.55;0.88;;;22.40;99.90;;;;;;10223090;28;20396;-89
2022/06/27 09:46:42;;;;;;;0.82;0.50;;;22.70;99.90;;;;;;10211368;28;20099;-89
2022/06/27 09:51:47;;;;;;;2.40;0.70;;;22.60;99.90;;;;;;10194356;28;20063;-89
2022/06/27 09:56:50;;;;;;;1.98;0.40;;;22.80;99.90;;;;;;10228210;28;20083;-89
2022/06/27 10:01:55;;;;;;;0.85;0.57;;;23.10;99.90;;;;;;10227222;28;20059;-89
2022/06/27 10:06:59;;;;;;;2.15;0.70;;;23.20;99.90;;;;;;10191018;28;20062;-90
2022/06/27 10:12:36;;;;;;;2.65;0.70;;;23.40;99.90;;;;;;10189969;28;20070;-89
2022/06/27 10:17:51;;;;;;;1.15;0.52;;;23.70;99.90;;;;;;10182184;28;20075;-89
2022/06/27 10:23:11;;;;;;;0.90;0.60;;;23.60;99.90;;;;;;10189287;29;20047;-89
2022/06/27 10:28:14;;;;;;;1.58;0.40;;;23.90;99.90;;;;;;10222450;28;20055;-88
2022/06/27 10:33:28;;;;;;;1.33;0.40;;;23.70;99.90;;;;;;10207202;28;20094;-89
2022/06/27 10:38:42;;;;;;;1.63;0.40;;;23.70;99.90;;;;;;10200123;28;20056;-89
2022/06/27 10:43:49;;;;;;;1.48;0.32;;;24.10;99.90;;;;;;10220918;28;20541;-89
2022/06/27 10:48:56;;;;;;;3.05;0.50;;;24.40;99.90;;;;;;10207850;28;20521;-89
2022/06/27 10:54:03;;;;;;;1.77;0.32;;;24.80;99.90;;;;;;10208931;29;20051;-89
2022/06/27 10:59:27;;;;;;;0.80;0.30;;;24.40;99.90;;;;;;10212559;28;20089;-89
2022/06/27 11:04:33;;;;;;;0.50;0.40;;;24.20;99.90;;;;;;10224714;28;20070;-89
2022/06/27 11:09:40;;;;;;;1.85;0.45;;;24.20;99.90;;;;;;10194947;28;20059;-89
2022/06/27 11:14:57;;;;;;;0.75;0.50;;;24.20;99.90;;;;;;10202162;28;20052;-89
2022/06/27 11:20:27;;;;;;;1.73;0.50;;;23.90;99.90;;;;;;10190279;28;20507;-89
2022/06/27 11:25:41;;;;;;;1.50;0.40;;;23.80;99.90;;;;;;10213398;28;20055;-89
2022/06/27 11:36:05;;;;;;;2.05;0.93;;;23.10;99.90;;;;;;10179539;28;20051;-88
2022/06/27 11:41:09;;;;;;;0.93;0.40;;;23.10;99.90;;;;;;10229298;28;20426;-89
2022/06/27 11:46:45;;;;;;;0.98;0.73;;;22.80;99.90;;;;;;10206873;28;20107;-89
2022/06/27 11:51:48;;;;;;;1.25;0.70;;;22.30;99.90;;;;;;10192631;28;20513;-89
2022/06/27 11:56:55;;;;;;;1.75;0.88;;;22.10;99.90;;;;;;10243705;28;20138;-89
2022/06/27 12:02:03;;;;;;;0.88;0.60;;;22.00;99.90;;;;;;10206969;28;20059;-89
2022/06/27 12:07:07;;;;;;;1.00;0.50;;;21.80;99.90;;;;;;10214907;28;20060;-89
2022/06/27 12:12:16;;;;;;;0.85;0.60;;;21.70;99.90;;;;;;10223597;28;20082;-89
2022/06/27 12:17:19;;;;;;;0.52;0.40;;;21.70;99.90;;;;;;10220043;28;20085;-89
2022/06/27 12:22:21;;;;;;;2.97;0.60;;;21.90;99.90;;;;;;10203228;28;20052;-88
2022/06/27 12:27:43;;;;;;;0.65;0.40;;;22.20;99.90;;;;;;10222693;28;20090;-89
2022/06/27 12:32:45;;;;;;;0.80;0.50;;;22.50;99.90;;;;;;10202297;28;20063;-88
2022/06/27 12:37:47;;;;;;;0.85;0.50;;;23.00;99.90;;;;;;10211657;28;20509;-88
2022/06/27 12:42:49;;;;;;;0.85;0.50;;;23.00;99.90;;;;;;10221798;28;20071;-88
2022/06/27 12:47:51;;;;;;;0.50;0.40;;;23.00;99.90;;;;;;10221152;28;20044;-89
2022/06/27 12:52:53;;;;;;;0.50;0.40;;;23.20;99.90;;;;;;10208796;28;20059;-88
2022/06/27 12:57:54;;;;;;;0.45;0.40;;;22.80;99.90;;;;;;10204726;28;20066;-88
2022/06/27 13:02:56;;;;;;;2.28;0.40;;;22.50;99.90;;;;;;10190702;28;20059;-89
2022/06/27 13:08:04;;;;;;;1.55;0.65;;;22.40;99.90;;;;;;10201469;28;20055;-89
2022/06/27 13:13:06;;;;;;;1.45;0.70;;;21.70;99.90;;;;;;10201554;28;20087;-88
2022/06/27 13:18:09;;;;;;;2.15;0.70;;;21.50;99.90;;;;;;10190646;28;20048;-88
2022/06/27 13:23:12;;;;;;;2.03;0.68;;;21.60;99.90;;;;;;10219446;28;20051;-88
2022/06/27 13:28:14;;;;;;;0.98;0.70;;;22.00;99.90;;;;;;10207788;29;20130;-88
2022/06/27 13:33:15;;;;;;;3.42;0.70;;;22.20;99.90;;;;;;10211376;28;20059;-87
2022/06/27 13:38:17;;;;;;;2.92;0.93;;;22.20;99.90;;;;;;10220499;28;20126;-87
2022/06/27 13:43:19;;;;;;;1.48;0.70;;;22.70;99.90;;;;;;10210291;28;20105;-86
2022/06/27 13:48:21;;;;;;;0.63;0.60;;;22.90;99.90;;;;;;10225337;28;20039;-86
2022/06/27 13:53:23;;;;;;;0.73;0.60;;;23.40;99.90;;;;;;10220863;28;20058;-85
2022/06/27 13:58:25;;;;;;;1.33;0.50;;;23.40;99.90;;;;;;10204890;28;20051;-86
2022/06/27 14:03:27;;;;;;;0.60;0.40;;;23.70;99.90;;;;;;10222733;28;20119;-85
2022/06/27 14:08:29;;;;;;;1.40;0.73;;;23.80;99.90;;;;;;10228048;28;20525;-86
2022/06/27 14:13:31;;;;;;;0.40;0.30;;;24.00;99.90;;;;;;10215860;28;20154;-87
2022/06/27 14:18:32;;;;;;;0.20;0.20;;;24.30;99.90;;;;;;10229224;28;20063;-86
2022/06/27 14:23:35;;;;;;;2.17;0.20;;;24.50;99.90;;;;;;10208128;28;20059;-85
2022/06/27 14:28:37;;;;;;;0.20;0.10;;;24.60;99.90;;;;;;10187193;28;20060;-86
2022/06/27 14:33:39;;;;;;;0.57;0.20;;;24.50;99.90;;;;;;10204526;28;20115;-86
2022/06/27 14:38:41;;;;;;;0.20;0.20;;;24.80;99.90;;;;;;10218772;28;20083;-86
2022/06/27 14:43:43;;;;;;;0.50;0.20;;;24.80;99.20;;;;;;10219528;28;20146;-85
2022/06/27 14:48:45;;;;;;;0.35;0.30;;;24.60;99.90;;;;;;10210814;28;20056;-86
2022/06/27 14:53:47;;;;;;;1.08;0.25;;;24.80;99.20;;;;;;10217443;28;20062;-86
2022/06/27 14:58:58;;;;;;;1.50;0.30;;;25.20;99.00;;;;;;10192722;28;20039;-88
2022/06/27 15:04:05;;;;;;;1.10;0.30;;;25.60;99.40;;;;;;10089703;28;20455;-90
2022/06/27 15:09:12;;;;;;;0.55;0.30;;;26.00;98.70;;;;;;9988301;29;20134;-90
2022/06/27 15:14:18;;;;;;;0.60;0.50;;;26.00;98.00;;;;;;10079432;28;22060;-90
2022/06/27 15:19:25;;;;;;;0.50;0.30;;;26.10;97.50;;;;;;9934298;29;20060;-90
2022/06/27 15:24:29;;;;;;;0.95;0.30;;;26.00;98.20;;;;;;10129674;29;20135;-91
2022/06/27 15:29:35;;;;;;;0.52;0.30;;;25.10;97.80;;;;;;10113743;29;20055;-89
2022/06/27 15:34:39;;;;;;;0.60;0.40;;;24.70;98.90;;;;;;10127670;28;20066;-88
2022/06/27 15:39:42;;;;;;;0.63;0.25;;;24.40;99.90;;;;;;10167531;29;20059;-89
2022/06/27 15:44:47;;;;;;;3.45;0.40;;;24.00;99.90;;;;;;10079829;28;20059;-91
2022/06/27 15:49:56;;;;;;;0.95;0.30;;;23.80;99.90;;;;;;9996733;29;20040;-90
2022/06/27 15:55:02;;;;;;;0.60;0.25;;;23.40;99.90;;;;;;10084471;29;20079;-90
2022/06/27 16:00:16;;;;;;;1.30;0.20;;;23.10;99.90;;;;;;10120284;28;20071;-90
2022/06/27 16:05:24;;;;;;;0.50;0.40;;;22.90;99.90;;;;;;10123301;28;20054;-90
2022/06/27 16:10:28;;;;;;;1.17;0.30;;;22.80;99.90;;;;;;10179989;28;20075;-90
2022/06/27 16:15:32;;;;;;;0.30;0.30;;;22.90;99.90;;;;;;10001289;28;20046;-91
2022/06/27 16:20:37;;;;;;;;;;;22.90;99.90;;;;;;10033725;29;20060;-92
2022/06/27 16:25:42;;;;;;;2.25;0.20;;;22.90;99.90;;;;;;10071158;29;19923;-90
2022/06/27 16:37:32;;;;;;;3.38;0.20;;;24.00;98.70;;;;;;10199672;28;20051;-93
2022/06/27 16:48:00;;;;;;;0.25;0.20;;;25.00;96.50;;;;;;9948082;29;20048;-92
2022/06/27 16:53:09;;;;;;;2.88;0.20;;;25.60;94.40;;;;;;9877167;28;20051;-92
2022/06/27 16:58:31;;;;;;;1.85;0.30;;;25.50;93.60;;;;;;9828204;29;20060;-92
2022/06/27 17:03:54;;;;;;;0.10;0.10;;;26.10;92.50;;;;;;9888647;28;20052;-92
2022/06/27 17:09:49;;;;;;;0.20;0.20;;;26.40;91.30;;;;;;9882647;28;20043;-93
2022/06/27 17:14:58;;;;;;;0.10;0.10;;;26.30;91.20;;;;;;9951001;29;20097;-92
2022/06/27 17:20:39;;;;;;;2.60;0.32;;;26.30;91.50;;;;;;9862856;29;20044;-92
2022/06/27 17:26:15;;;;;;;0.25;0.10;;;26.80;91.20;;;;;;9835476;29;20046;-92
2022/06/27 17:31:35;;;;;;;0.30;0.20;;;26.50;90.00;;;;;;9868134;29;20056;-91
2022/06/27 17:37:21;;;;;;;0.40;0.20;;;26.50;90.20;;;;;;9985755;29;20036;-92
2022/06/27 17:42:51;;;;;;;0.22;0.17;;;26.30;90.60;;;;;;9829206;29;20058;-92
2022/06/27 17:48:04;;;;;;;0.45;0.20;;;25.10;91.70;;;;;;9984824;28;20070;-92
2022/06/27 17:53:59;;;;;;;1.48;0.20;;;24.90;92.40;;;;;;9940335;28;20054;-93
2022/06/27 17:59:20;;;;;;;0.35;0.20;;;24.20;93.50;;;;;;9921621;29;20064;-92
2022/06/27 18:05:00;;;;;;;0.50;0.20;;;24.40;93.80;;;;;;9853468;28;20570;-93
2022/06/27 18:10:27;;;;;;;0.40;0.20;;;24.20;94.40;;;;;;9901394;29;20052;-92
2022/06/27 18:16:42;;;;;;;0.73;0.30;;;23.90;94.60;;;;;;9860615;29;20119;-93
2022/06/27 18:22:38;;;;;;;1.10;0.20;;;23.70;95.10;;;;;;9899181;28;20120;-93
2022/06/27 18:28:10;;;;;;;2.58;0.20;;;23.50;95.80;;;;;;9869630;29;20055;-93
2022/06/27 18:33:24;;;;;;;1.08;0.10;;;23.30;95.80;;;;;;9964727;29;20048;-93
2022/06/27 18:39:29;;;;;;;1.55;0.20;;;23.00;96.50;;;;;;9904338;29;20060;-93
2022/06/27 18:45:36;;;;;;;0.57;0.20;;;22.90;97.30;;;;;;9853298;28;20053;-92
2022/06/27 18:51:45;;;;;;;0.57;0.20;;;22.70;97.70;;;;;;9879756;29;20111;-94
2022/06/27 18:57:21;;;;;;;1.08;0.20;;;22.50;97.50;;;;;;9901161;29;20051;-92
2022/06/27 19:02:35;;;;;;;0.30;0.20;;;22.40;98.50;;;;;;9919437;29;20059;-92
2022/06/27 19:08:09;;;;;;;1.95;0.30;;;22.10;99.80;;;;;;9825028;29;20049;-93
2022/06/27 19:13:36;;;;;;;0.73;0.30;;;21.70;99.90;;;;;;9772825;29;20073;-93
2022/06/27 19:19:08;;;;;;;0.20;0.20;;;21.30;99.90;;;;;;9752995;29;20046;-92
2022/06/27 19:25:17;;;;;;;2.33;0.20;;;21.10;99.90;;;;;;9940942;29;20060;-92
2022/06/27 19:30:20;;;;;;;0.55;0.17;;;20.80;99.90;;;;;;10027626;29;20066;-92
2022/06/27 19:36:14;;;;;;;1.45;0.20;;;20.50;99.90;;;;;;9987116;28;20070;-94
2022/06/27 19:42:13;;;;;;;0.22;0.08;;;20.20;99.90;;;;;;9936110;28;20051;-93
2022/06/27 19:48:02;;;;;;;0.15;0.10;;;20.10;99.90;;;;;;9764248;29;20057;-93
2022/06/27 19:53:38;;;;;;;0.10;0.10;;;19.90;99.90;;;;;;9917390;29;20044;-93
2022/06/27 19:59:18;;;;;;;0.03;0.03;;;19.70;99.90;;;;;;9836464;29;20059;-92
2022/06/27 20:05:06;;;;;;;0.10;0.05;;;19.60;99.90;;;;;;9892551;28;20058;-92
2022/06/27 20:10:46;;;;;;;0.40;0.00;;;19.50;99.90;;;;;;9864219;29;20051;-93
2022/06/27 20:15:59;;;;;;;0.68;0.15;;;19.40;99.90;;;;;;9938002;29;20053;-92
2022/06/27 20:22:09;;;;;;;0.10;0.00;;;19.40;99.90;;;;;;9965301;29;20212;-93
2022/06/27 20:27:42;;;;;;;1.95;0.10;;;19.30;99.90;;;;;;9811895;29;20084;-93
2022/06/27 20:33:19;;;;;;;0.77;0.10;;;19.30;99.90;;;;;;10060309;29;20085;-93
2022/06/27 20:38:43;;;;;;;0.80;0.20;;;19.20;99.90;;;;;;9963497;29;20223;-93
2022/06/27 20:44:22;;;;;;;0.63;0.10;;;18.90;99.90;;;;;;9881326;29;20096;-93
2022/06/27 20:50:18;;;;;;;1.48;0.10;;;18.90;99.90;;;;;;9959680;29;20055;-93
2022/06/27 20:56:26;;;;;;;0.88;0.10;;;18.90;99.90;;;;;;9822415;29;20182;-93
2022/06/27 21:02:21;;;;;;;0.10;0.10;;;18.90;99.90;;;;;;10049834;29;20071;-89
2022/06/27 21:07:27;;;;;;;0.20;0.17;;;18.80;99.90;;;;;;10212904;29;20057;-89
2022/06/27 21:12:29;;;;;;;0.28;0.20;;;18.70;99.90;;;;;;10237873;29;20052;-90
2022/06/27 21:17:33;;;;;;;0.20;0.20;;;18.60;99.90;;;;;;10226727;28;20055;-90
2022/06/27 21:22:55;;;;;;;0.22;0.20;;;18.50;99.90;;;;;;10246974;28;20058;-90
2022/06/27 21:27:57;;;;;;;0.50;0.25;;;18.50;99.90;;;;;;10216891;29;20047;-90
2022/06/27 21:33:01;;;;;;;0.73;0.30;;;18.40;99.90;;;;;;10240704;29;20086;-90
2022/06/27 21:38:05;;;;;;;0.60;0.40;;;18.40;99.90;;;;;;10251051;28;20043;-90
2022/06/27 21:43:08;;;;;;;1.13;0.47;;;18.40;99.90;;;;;;10226685;29;20086;-90
2022/06/27 21:48:10;;;;;;;0.40;0.20;;;18.30;99.90;;;;;;10199179;29;20056;-90
2022/06/27 21:53:13;;;;;;;1.30;0.40;;;18.30;99.90;;;;;;10194730;28;20058;-91
2022/06/27 21:58:15;;;;;;;0.30;0.30;;;18.30;99.90;;;;;;10151960;28;20087;-89
2022/06/27 22:03:17;;;;;;;1.17;0.45;;;18.30;99.90;;;;;;10091395;28;20068;-90
2022/06/27 22:08:20;;;;;;;0.47;0.30;;;18.30;99.90;;;;;;10221548;28;20051;-90
2022/06/27 22:13:22;;;;;;;2.15;0.30;;;18.20;99.90;;;;;;10219284;28;20074;-90
2022/06/27 22:18:24;;;;;;;1.25;0.50;;;18.10;99.90;;;;;;10197488;29;20426;-89
2022/06/27 22:23:26;;;;;;;1.08;0.77;;;18.00;99.90;;;;;;10193427;29;20055;-88
2022/06/27 22:28:28;;;;;;;1.73;0.40;;;17.90;99.90;;;;;;10214898;28;20039;-88
2022/06/27 22:33:30;;;;;;;2.00;0.30;;;17.90;99.90;;;;;;10208041;29;20138;-88
2022/06/27 22:38:34;;;;;;;2.63;0.40;;;17.80;99.90;;;;;;10206842;28;20055;-87
2022/06/27 22:43:36;;;;;;;1.73;0.40;;;17.80;99.90;;;;;;10187604;28;20146;-88
2022/06/27 22:48:38;;;;;;;1.40;0.30;;;17.70;99.90;;;;;;10209486;29;20069;-88
2022/06/27 22:53:39;;;;;;;1.42;0.40;;;17.60;99.90;;;;;;10211544;29;20417;-88
2022/06/27 22:58:41;;;;;;;0.50;0.30;;;17.60;99.90;;;;;;10212974;29;20070;-87
2022/06/27 23:03:43;;;;;;;0.85;0.43;;;17.50;99.90;;;;;;10209848;28;20078;-87
2022/06/27 23:08:45;;;;;;;1.15;0.40;;;17.40;99.90;;;;;;10213005;29;20058;-88
2022/06/27 23:13:47;;;;;;;3.78;0.40;;;17.30;99.90;;;;;;10213544;28;20074;-88
2022/06/27 23:18:49;;;;;;;2.03;0.40;;;17.30;99.90;;;;;;10188821;28;20070;-88
2022/06/27 23:23:51;;;;;;;3.15;0.50;;;17.20;99.90;;;;;;10222097;29;20047;-87
2022/06/27 23:28:53;;;;;;;1.02;0.50;;;17.10;99.90;;;;;;10207934;29;20043;-88
2022/06/27 23:33:55;;;;;;;1.13;0.40;;;17.00;99.90;;;;;;10198981;29;20210;-87
2022/06/27 23:38:57;;;;;;;3.65;0.40;;;17.00;99.90;;;;;;10221164;28;20052;-87
2022/06/27 23:43:58;;;;;;;0.70;0.30;;;17.00;99.90;;;;;;10213340;28;20043;-89
2022/06/27 23:49:00;;;;;;;0.57;0.47;;;16.90;99.90;;;;;;10220654;28;20059;-89
2022/06/27 23:54:02;;;;;;;0.98;0.45;;;16.90;99.90;;;;;;10209219;28;20117;-88
2022/06/27 23:59:04;;;;;;;0.82;0.50;;;16.80;99.90;;;;;;10206694;29;20055;-88
